AirNav   Air Wisconsin Up To $57,000 Bonus
 
 787 users online  

13MI Lee Memorial Hospital Heliport
Dowagiac, Michigan, USA

GOING TO DOWAGIAC?


FAA INFORMATION EFFECTIVE 02 JANUARY 2020

Location

FAA Identifier: 13MI
Lat/Long: 41-58-59.8900N 086-06-52.4100W
41-58.998167N 086-06.873500W
41.9833028,-86.1145583
(estimated)
Elevation: 748 ft. / 228 m (estimated)
Variation: 02W (1985)
Time zone: UTC -5 (UTC -4 during Daylight Saving Time)
Zip code: 49047

Heliport Operations

Heliport use: Private use, MEDICAL USE.
Activation date: 02/1987
Control tower: no
ARTCC: CHICAGO CENTER
FSS: LANSING FLIGHT SERVICE STATION
Attendance: CONTINUOUS
Wind indicator: lighted
Segmented circle: no

Heliport Communications

WX ASOS at BEH (16 nm NW): 121.55 (269-925-9008)
WX AWOS-3 at EKM (17 nm S): 124.475 (574-264-9002)
WX ASOS at SBN (19 nm SW): PHONE 574-251-2652

Nearby radio navigation aids

VOR radial/distance  VOR name  Freq  Var
ELXr178/9.7KEELER VOR/DME116.6000E
GIJr035/15.8GIPPER VORTAC115.4000E
GSHr352/27.8GOSHEN VORTAC113.7000E
PMMr181/29.0PULLMAN VOR/DME112.1000E
AZOr240/29.3KALAMAZOO VOR/DME109.0001W

 
NDB name  Hdg/Dist  Freq  Var  ID
STURGIS293/32.138204WIRS .. .-. ...

Heliport Services

Runway Information

Helipad H1

Dimensions: 60 x 60 ft. / 18 x 18 m
Surface: asphalt/turf
Latitude: 41-58.998167N
Longitude: 086-06.873500W
Elevation: 748.0 ft.
Traffic pattern: leftleft
Markings: basic

Heliport Ownership and Management from official FAA records

Ownership: Publicly-owned
Owner: LEE MEMORIAL HOSPITAL
420 W HIGH ST
DOWAGIAC, MI 49047
Phone 269-782-8681
Manager: MARIA LUTZ
420 W HIGH ST
DOWAGIAC, MI 49047
Phone (269) 783-3042
EXT 4421. ALSO 269-303-6463.

Additional Remarks

A52-H1 150' ANTENNA 290' SW.
FOR CD CTC CHICAGO ARTCC AT 630-906-8921.

Instrument Procedures

There are no published instrument procedures at 13MI.

Some nearby airports with instrument procedures:

C91 - Dowagiac Municipal Airport (1 nm NW)
3TR - Jerry Tyler Memorial Airport (10 nm SW)
C20 - Andrews University Airpark (11 nm W)
KBEH - Southwest Michigan Regional Airport (16 nm NW)
KEKM - Elkhart Municipal Airport (17 nm S)
KSBN - South Bend International Airport (19 nm SW)
 
Loc | Ops | Rwys | IFR | FBO | Links
Com | Nav | Svcs | Stats | Notes
Area around 13MI (Lee Memorial Hospital Heliport)
 
Road maps at: MapQuest Bing Google
 
Aerial photo
No photo
 
Sectional chart

 
Airport distance calculator
Flying to Lee Memorial Hospital Heliport? Find the distance to fly.

From to 13MI

Sunrise and sunset
Times for 21-Jan-2020
 Local
(UTC-5)
 Zulu
(UTC)
Morning civil twilight07:3712:37
Sunrise08:0813:08
Sunset17:4422:44
Evening civil twilight18:1423:14

Current date and time
Zulu (UTC)  22-Jan-2020 03:45:12
Local (UTC-5)  21-Jan-2020 22:45:12
 
METAR
KBEH 
16nm NW 
220253Z AUTO 19005KT 10SM CLR M05/M09 A3042 RMK AO2 SLP310 T10501089 56018
KEKM 
17nm S 
220150Z 18005KT 10SM CLR M04/M07 A3044 RMK AO2 LAST
KSBN 
19nm SW 
220254Z 19008KT 10SM CLR M04/M09 A3043 RMK AO2 SLP316 T10441089 56018
KLWA 
23nm N 
220335Z AUTO 19004KT 10SM CLR M05/M08 A3040 RMK AO2 T10521085
KHAI 
23nm E 
220336Z AUTO 20007KT 10SM CLR M06/M08 A3042 RMK AO2 T10561082
KAZO 
29nm NE 
220253Z 18007KT 10SM CLR M06/M09 A3041 RMK AO2 SLP312 T10611094 58019
KGSH 
31nm SE 
220253Z AUTO 18007KT 8SM CLR M05/M08 A3043 RMK AO2 SLP317 T10501083 56018
KIRS 
32nm E 
220335Z AUTO 20007KT 10SM CLR M06/M08 A3041 RMK AO2 T10561079
TAF
KSBN 
19nm SW 
211730Z 2118/2218 24010KT P6SM FEW030 FM212300 20010KT P6SM FEW250 FM221400 20014G20KT P6SM BKN200
NOTAMs
Click for the latest NOTAMs
NOTAMs are issued by the DoD/FAA and will open in a separate window not controlled by AirNav.

 

 
 

Would you like to see your business listed on this page?

 If your business provides an interesting product or service to pilots, flight crews, aircraft, or users of the Lee Memorial Hospital Heliport, you should consider listing it here.  To start the listing process, click on the button below
 
Add a business
 

Other Pages about Lee Memorial Hospital Heliport

Update a link
 
Copyright © AirNav, LLC. All rights reserved. Privacy Policy  Contact